Edgar B Speer — WQZ9670 — position and weather

sailwx.info

Track history (hours):
 
Tides and Currents Weather Stations Pressure Air Temp Water Temp Dewpoint Dewpoint Depression Visibility Wind Speed Wind Dir Waves Ship Positions

Edgar B Speer

Owner: Great Lakes Fleet, Inc, DULUTH, MN. More information available from US FCC via Universal Licensing System and Coast Guard Vessel Documentation Center.

Last reported at 2017-May-18 13:44 UTC. Time now 2017-May-23 01:16 UTC.
Position N 46°56' W 091°28'.

Length 306 m; draft 8.3 m.

Type: Cargo ship. MMSI: 366971330.

Date/timePositionNaut miles runAvg speedWind from/ knotsBaromVisibWave heightAir tempDewpointWater temp
2017-May-18 13:44N 46°56' W 091°28'612.2
2017-May-18 13:14N 46°53' W 091°35'312.4
2017-May-18 13:00N 46°52' W 091°39'612.3
2017-May-18 12:30N 46°48' W 091°47'612.2
2017-May-18 11:59N 46°45' W 091°55'510.4
2017-May-18 11:30N 46°42' W 092°01'1 1.0
2017-May-18 11:00N 46°42' W 092°01'0 0.0
2017-May-18 10:30N 46°42' W 092°01'0 0.0
2017-May-18 10:00N 46°42' W 092°01'0 0.0
2017-May-18 09:30N 46°42' W 092°01'0 0.0
2017-May-18 09:00N 46°42' W 092°01'0 0.0
2017-May-18 08:30N 46°42' W 092°01'0 0.0
2017-May-18 08:00N 46°42' W 092°01'0 0.0
2017-May-18 07:30N 46°42' W 092°01'0 0.0
2017-May-18 07:00N 46°42' W 092°01'0 0.0
2017-May-18 06:30N 46°42' W 092°01'0 0.0
2017-May-18 06:00N 46°42' W 092°01'0 0.0
2017-May-18 05:31N 46°42' W 092°01'0 0.0
2017-May-18 05:00N 46°42' W 092°01'0 0.0
2017-May-18 04:31N 46°42' W 092°01'0 0.0
2017-May-18 04:01N 46°42' W 092°01'0 0.0
2017-May-18 03:30N 46°42' W 092°01'0 0.0
2017-May-18 03:00N 46°42' W 092°01'0 0.0
2017-May-18 02:30N 46°42' W 092°01'0 0.0
2017-May-18 02:01N 46°42' W 092°01'0 0.0
2017-May-18 01:31N 46°42' W 092°01'0 0.0
2017-May-18 01:01N 46°42' W 092°01'0 0.0
2017-May-18 00:30N 46°42' W 092°01'0 0.0
2017-May-18 00:01N 46°42' W 092°01'0 0.0
2017-May-17 23:30N 46°42' W 092°01'0 0.0
2017-May-17 23:00N 46°42' W 092°01'0 0.0
2017-May-17 22:30N 46°42' W 092°01'0 0.0
2017-May-17 22:00N 46°42' W 092°01'0 0.0
2017-May-17 21:30N 46°42' W 092°01'0 0.0
2017-May-17 21:00N 46°42' W 092°01'0 0.0
2017-May-17 20:30N 46°42' W 092°01'0 0.0
2017-May-17 20:00N 46°42' W 092°01'0 0.0
2017-May-17 19:30N 46°42' W 092°01'0 0.0
2017-May-17 19:00N 46°42' W 092°01'0 0.0
2017-May-17 18:30N 46°42' W 092°01'0 0.0
2017-May-17 18:00N 46°42' W 092°01'0 0.0
2017-May-17 17:30N 46°42' W 092°01'0 0.0
2017-May-17 17:00N 46°42' W 092°01'0 0.0
2017-May-17 16:30N 46°42' W 092°01'0 0.0
2017-May-17 16:00N 46°42' W 092°01'0 0.0
2017-May-17 15:30N 46°42' W 092°01'0 0.0
2017-May-17 15:00N 46°42' W 092°01'0 0.0
2017-May-17 14:30N 46°42' W 092°01'0 0.0
2017-May-17 13:30N 46°42' W 092°01'0 0.0
2017-May-17 13:00N 46°42' W 092°01'0 0.0
2017-May-17 12:31N 46°42' W 092°01'0 0.0
2017-May-17 12:00N 46°42' W 092°01'0 0.0
2017-May-17 11:30N 46°42' W 092°01'0 0.0
2017-May-17 11:00N 46°42' W 092°01'0 0.0
2017-May-17 10:31N 46°42' W 092°01'0 0.0
2017-May-17 10:00N 46°42' W 092°01'0 0.0
2017-May-17 09:31N 46°42' W 092°01'0 0.0
2017-May-17 09:00N 46°42' W 092°01'0 0.0
2017-May-17 08:30N 46°42' W 092°01'0 0.0
2017-May-17 08:00N 46°42' W 092°01'0 0.0
2017-May-17 07:30N 46°42' W 092°01'0 0.0
2017-May-17 07:00N 46°42' W 092°01'0 0.0
2017-May-17 06:30N 46°42' W 092°01'0 0.0
2017-May-17 06:00N 46°42' W 092°01'0 0.0
2017-May-17 05:30N 46°42' W 092°01'0 0.0
2017-May-17 05:00N 46°42' W 092°01'0 0.0
2017-May-17 04:30N 46°42' W 092°01'0 0.5
2017-May-17 04:00N 46°42' W 092°01'1 1.4
2017-May-17 03:30N 46°43' W 092°02'3 5.1
2017-May-17 03:00N 46°44' W 092°05'1 2.9
2017-May-17 02:30N 46°46' W 092°06'0 0.0
2017-May-17 02:00N 46°46' W 092°06'0 0.0
2017-May-17 01:30N 46°46' W 092°06'0 0.6
2017-May-17 01:00N 46°46' W 092°06'2 3.5
2017-May-17 00:31N 46°47' W 092°04'5 9.3
2017-May-17 00:01N 46°49' W 091°58'713.3
2017-May-16 23:30N 46°51' W 091°49'713.4
2017-May-16 23:00N 46°54' W 091°40'713.4
2017-May-16 22:31N 46°56' W 091°31'31210.2
2017-May-15 15:50N 45°51' W 084°09'513.4
2017-May-15 15:30N 45°51' W 084°16'713.4
2017-May-15 15:00N 45°51' W 084°25'1312.7
2017-May-15 14:00N 45°49' W 084°43'612.8
2017-May-15 13:30N 45°49' W 084°52'713.2
2017-May-15 13:00N 45°50' W 085°02'510.3
2017-May-15 12:30N 45°48' W 085°09'611.1
2017-May-15 12:00N 45°43' W 085°12'713.5
2017-May-15 11:30N 45°37' W 085°18'713.6
2017-May-15 11:00N 45°32' W 085°24'713.4
2017-May-15 10:30N 45°26' W 085°29'713.3
2017-May-15 10:00N 45°21' W 085°35'713.3
2017-May-15 09:30N 45°16' W 085°41'713.2
2017-May-15 09:00N 45°10' W 085°46'713.3
2017-May-15 08:30N 45°05' W 085°52'713.0
2017-May-15 07:58N 44°60' W 085°59'913.2
2017-May-15 07:17N 44°56' W 086°10'612.7
2017-May-15 06:50N 44°51' W 086°15'51 1.0
2017-May-13 04:17N 45°42' W 086°04'412.7
2017-May-13 03:57N 45°44' W 085°59'612.7
2017-May-13 03:30N 45°47' W 085°52'612.6
2017-May-13 03:00N 45°50' W 085°44'612.5
2017-May-13 02:30N 45°53' W 085°37'612.1
2017-May-13 02:00N 45°54' W 085°28'612.0
2017-May-13 01:30N 45°53' W 085°19'612.1
2017-May-13 01:00N 45°52' W 085°11'612.2
2017-May-13 00:30N 45°51' W 085°02'612.2
2017-May-13 00:00N 45°50' W 084°53'612.2
2017-May-12 23:30N 45°49' W 084°45'511.1
2017-May-12 23:00N 45°50' W 084°37'611.0
2017-May-12 22:30N 45°52' W 084°29'612.2
2017-May-12 22:00N 45°53' W 084°21'612.2
2017-May-12 21:29N 45°53' W 084°12'612.2
2017-May-12 21:00N 45°54' W 084°03'711.8
2017-May-12 20:24N 45°56' W 083°54'322 8.6
2017-May-11 06:48N 46°53' W 091°34'412.7
2017-May-11 06:30N 46°51' W 091°39'612.7
2017-May-11 06:00N 46°48' W 091°47'612.6
2017-May-11 05:30N 46°45' W 091°55'5 9.5
2017-May-11 05:00N 46°42' W 092°01'0 0.6
2017-May-11 04:31N 46°42' W 092°01'0 0.0
2017-May-11 04:01N 46°42' W 092°01'0 0.0
2017-May-11 03:31N 46°42' W 092°01'0 0.0
2017-May-11 03:01N 46°42' W 092°01'0 0.0
2017-May-11 02:30N 46°42' W 092°01'0 0.0
2017-May-11 02:00N 46°42' W 092°01'0 0.0
2017-May-11 01:30N 46°42' W 092°01'0 0.0
2017-May-11 01:00N 46°42' W 092°01'0 0.0
2017-May-11 00:31N 46°42' W 092°01'0 0.0
2017-May-11 00:00N 46°42' W 092°01'0 0.0
2017-May-10 23:30N 46°42' W 092°01'0 0.0
2017-May-10 23:00N 46°42' W 092°01'0 0.0
2017-May-10 22:30N 46°42' W 092°01'0 0.0
2017-May-10 22:00N 46°42' W 092°01'0 0.0
2017-May-10 21:30N 46°42' W 092°01'0 0.0
2017-May-10 21:00N 46°42' W 092°01'0 0.0
2017-May-10 20:30N 46°42' W 092°01'0 0.0
2017-May-10 20:00N 46°42' W 092°01'0 0.0
2017-May-10 19:30N 46°42' W 092°01'0 0.0
2017-May-10 19:00N 46°42' W 092°01'0 0.0
2017-May-10 18:30N 46°42' W 092°01'0 0.0
2017-May-10 18:00N 46°42' W 092°01'0 0.0
2017-May-10 17:30N 46°42' W 092°01'0 0.0
2017-May-10 17:00N 46°42' W 092°01'0 0.0
2017-May-10 16:31N 46°42' W 092°01'0 0.0
2017-May-10 16:00N 46°42' W 092°01'0 0.0
2017-May-10 15:31N 46°42' W 092°01'0 0.0
2017-May-10 15:00N 46°42' W 092°01'0 0.0
2017-May-10 14:00N 46°42' W 092°01'0 0.0
2017-May-10 13:31N 46°42' W 092°01'0 0.0
2017-May-10 13:00N 46°42' W 092°01'0 0.0
2017-May-10 12:31N 46°42' W 092°01'0 0.0
2017-May-10 12:00N 46°42' W 092°01'0 0.0
2017-May-10 11:31N 46°42' W 092°01'0 0.0
2017-May-10 11:00N 46°42' W 092°01'0 0.0
2017-May-10 10:30N 46°42' W 092°01'0 0.0
2017-May-10 10:00N 46°42' W 092°01'0 0.0
2017-May-10 09:30N 46°42' W 092°01'0 0.0
2017-May-10 09:00N 46°42' W 092°01'0 0.0
2017-May-10 08:30N 46°42' W 092°01'0 0.0
2017-May-10 08:00N 46°42' W 092°01'0 0.0
2017-May-10 07:30N 46°42' W 092°01'0 0.0
2017-May-10 07:00N 46°42' W 092°01'0 0.0
2017-May-10 06:30N 46°42' W 092°01'0 0.0
2017-May-10 06:00N 46°42' W 092°01'0 0.0
2017-May-10 05:30N 46°42' W 092°01'0 0.0
2017-May-10 05:00N 46°42' W 092°01'0 0.0
2017-May-10 04:30N 46°42' W 092°01'0 0.0
2017-May-10 04:00N 46°42' W 092°01'0 0.0
2017-May-10 03:30N 46°42' W 092°01'0 0.0
2017-May-10 03:01N 46°42' W 092°01'0 0.0
2017-May-10 02:31N 46°42' W 092°01'0 0.0
2017-May-10 02:00N 46°42' W 092°01'0 0.0
2017-May-10 01:30N 46°42' W 092°01'0 0.0
2017-May-10 01:01N 46°42' W 092°01'0 0.0
2017-May-10 00:31N 46°42' W 092°01'0 0.0
2017-May-10 00:00N 46°42' W 092°01'0 0.0
2017-May-09 23:30N 46°42' W 092°01'0 0.0
2017-May-09 23:00N 46°42' W 092°01'0 0.0
2017-May-09 22:30N 46°42' W 092°01'0 0.0
2017-May-09 22:00N 46°42' W 092°01'0 0.0
2017-May-09 21:31N 46°42' W 092°01'0 0.4
2017-May-09 21:00N 46°42' W 092°01'1 2.1
2017-May-09 20:31N 46°43' W 091°60'2 4.5
2017-May-09 20:00N 46°44' W 091°57'0 0.4
2017-May-09 19:30N 46°44' W 091°57'0 0.4
2017-May-09 19:00N 46°44' W 091°57'0 0.4
2017-May-09 18:30N 46°44' W 091°56'0 0.4
2017-May-09 18:00N 46°44' W 091°56'0 0.3
2017-May-09 17:30N 46°44' W 091°56'0 0.2
2017-May-09 17:00N 46°44' W 091°56'0 0.1
2017-May-09 16:30N 46°45' W 091°56'3 6.2
2017-May-09 16:00N 46°46' W 091°52'4 7.5
2017-May-09 15:30N 46°48' W 091°47'510.6
2017-May-09 15:00N 46°50' W 091°40'611.5
2017-May-09 14:30N 46°53' W 091°32'  
Track history (hours):
 
Tides and Currents Weather Stations Pressure Air Temp Water Temp Dewpoint Dewpoint Depression Visibility Wind Speed Wind Dir Waves Ship Positions

Edgar B Speer

Owner: Great Lakes Fleet, Inc, DULUTH, MN. More information available from US FCC via Universal Licensing System and Coast Guard Vessel Documentation Center.

Last reported at 2017-May-18 13:44 UTC. Time now 2017-May-23 01:16 UTC.
Position N 46°56' W 091°28'.

Length 306 m; draft 8.3 m.

Type: Cargo ship. MMSI: 366971330.

Date/timePositionNaut miles runAvg speedWind from/ knotsBaromVisibWave heightAir tempDewpointWater temp
2017-May-18 13:44N 46°56' W 091°28'612.2
2017-May-18 13:14N 46°53' W 091°35'312.4
2017-May-18 13:00N 46°52' W 091°39'612.3
2017-May-18 12:30N 46°48' W 091°47'612.2
2017-May-18 11:59N 46°45' W 091°55'510.4
2017-May-18 11:30N 46°42' W 092°01'1 1.0
2017-May-18 11:00N 46°42' W 092°01'0 0.0
2017-May-18 10:30N 46°42' W 092°01'0 0.0
2017-May-18 10:00N 46°42' W 092°01'0 0.0
2017-May-18 09:30N 46°42' W 092°01'0 0.0
2017-May-18 09:00N 46°42' W 092°01'0 0.0
2017-May-18 08:30N 46°42' W 092°01'0 0.0
2017-May-18 08:00N 46°42' W 092°01'0 0.0
2017-May-18 07:30N 46°42' W 092°01'0 0.0
2017-May-18 07:00N 46°42' W 092°01'0 0.0
2017-May-18 06:30N 46°42' W 092°01'0 0.0
2017-May-18 06:00N 46°42' W 092°01'0 0.0
2017-May-18 05:31N 46°42' W 092°01'0 0.0
2017-May-18 05:00N 46°42' W 092°01'0 0.0
2017-May-18 04:31N 46°42' W 092°01'0 0.0
2017-May-18 04:01N 46°42' W 092°01'0 0.0
2017-May-18 03:30N 46°42' W 092°01'0 0.0
2017-May-18 03:00N 46°42' W 092°01'0 0.0
2017-May-18 02:30N 46°42' W 092°01'0 0.0
2017-May-18 02:01N 46°42' W 092°01'0 0.0
2017-May-18 01:31N 46°42' W 092°01'0 0.0
2017-May-18 01:01N 46°42' W 092°01'0 0.0
2017-May-18 00:30N 46°42' W 092°01'0 0.0
2017-May-18 00:01N 46°42' W 092°01'0 0.0
2017-May-17 23:30N 46°42' W 092°01'0 0.0
2017-May-17 23:00N 46°42' W 092°01'0 0.0
2017-May-17 22:30N 46°42' W 092°01'0 0.0
2017-May-17 22:00N 46°42' W 092°01'0 0.0
2017-May-17 21:30N 46°42' W 092°01'0 0.0
2017-May-17 21:00N 46°42' W 092°01'0 0.0
2017-May-17 20:30N 46°42' W 092°01'0 0.0
2017-May-17 20:00N 46°42' W 092°01'0 0.0
2017-May-17 19:30N 46°42' W 092°01'0 0.0
2017-May-17 19:00N 46°42' W 092°01'0 0.0
2017-May-17 18:30N 46°42' W 092°01'0 0.0
2017-May-17 18:00N 46°42' W 092°01'0 0.0
2017-May-17 17:30N 46°42' W 092°01'0 0.0
2017-May-17 17:00N 46°42' W 092°01'0 0.0
2017-May-17 16:30N 46°42' W 092°01'0 0.0
2017-May-17 16:00N 46°42' W 092°01'0 0.0
2017-May-17 15:30N 46°42' W 092°01'0 0.0
2017-May-17 15:00N 46°42' W 092°01'0 0.0
2017-May-17 14:30N 46°42' W 092°01'0 0.0
2017-May-17 13:30N 46°42' W 092°01'0 0.0
2017-May-17 13:00N 46°42' W 092°01'0 0.0
2017-May-17 12:31N 46°42' W 092°01'0 0.0
2017-May-17 12:00N 46°42' W 092°01'0 0.0
2017-May-17 11:30N 46°42' W 092°01'0 0.0
2017-May-17 11:00N 46°42' W 092°01'0 0.0
2017-May-17 10:31N 46°42' W 092°01'0 0.0
2017-May-17 10:00N 46°42' W 092°01'0 0.0
2017-May-17 09:31N 46°42' W 092°01'0 0.0
2017-May-17 09:00N 46°42' W 092°01'0 0.0
2017-May-17 08:30N 46°42' W 092°01'0 0.0
2017-May-17 08:00N 46°42' W 092°01'0 0.0
2017-May-17 07:30N 46°42' W 092°01'0 0.0
2017-May-17 07:00N 46°42' W 092°01'0 0.0
2017-May-17 06:30N 46°42' W 092°01'0 0.0
2017-May-17 06:00N 46°42' W 092°01'0 0.0
2017-May-17 05:30N 46°42' W 092°01'0 0.0
2017-May-17 05:00N 46°42' W 092°01'0 0.0
2017-May-17 04:30N 46°42' W 092°01'0 0.5
2017-May-17 04:00N 46°42' W 092°01'1 1.4
2017-May-17 03:30N 46°43' W 092°02'3 5.1
2017-May-17 03:00N 46°44' W 092°05'1 2.9
2017-May-17 02:30N 46°46' W 092°06'0 0.0
2017-May-17 02:00N 46°46' W 092°06'0 0.0
2017-May-17 01:30N 46°46' W 092°06'0 0.6
2017-May-17 01:00N 46°46' W 092°06'2 3.5
2017-May-17 00:31N 46°47' W 092°04'5 9.3
2017-May-17 00:01N 46°49' W 091°58'713.3
2017-May-16 23:30N 46°51' W 091°49'713.4
2017-May-16 23:00N 46°54' W 091°40'713.4
2017-May-16 22:31N 46°56' W 091°31'31210.2
2017-May-15 15:50N 45°51' W 084°09'513.4
2017-May-15 15:30N 45°51' W 084°16'713.4
2017-May-15 15:00N 45°51' W 084°25'1312.7
2017-May-15 14:00N 45°49' W 084°43'612.8
2017-May-15 13:30N 45°49' W 084°52'713.2
2017-May-15 13:00N 45°50' W 085°02'510.3
2017-May-15 12:30N 45°48' W 085°09'611.1
2017-May-15 12:00N 45°43' W 085°12'713.5
2017-May-15 11:30N 45°37' W 085°18'713.6
2017-May-15 11:00N 45°32' W 085°24'713.4
2017-May-15 10:30N 45°26' W 085°29'713.3
2017-May-15 10:00N 45°21' W 085°35'713.3
2017-May-15 09:30N 45°16' W 085°41'713.2
2017-May-15 09:00N 45°10' W 085°46'713.3
2017-May-15 08:30N 45°05' W 085°52'713.0
2017-May-15 07:58N 44°60' W 085°59'913.2
2017-May-15 07:17N 44°56' W 086°10'612.7
2017-May-15 06:50N 44°51' W 086°15'51 1.0
2017-May-13 04:17N 45°42' W 086°04'412.7
2017-May-13 03:57N 45°44' W 085°59'612.7
2017-May-13 03:30N 45°47' W 085°52'612.6
2017-May-13 03:00N 45°50' W 085°44'612.5
2017-May-13 02:30N 45°53' W 085°37'612.1
2017-May-13 02:00N 45°54' W 085°28'612.0
2017-May-13 01:30N 45°53' W 085°19'612.1
2017-May-13 01:00N 45°52' W 085°11'612.2
2017-May-13 00:30N 45°51' W 085°02'612.2
2017-May-13 00:00N 45°50' W 084°53'612.2
2017-May-12 23:30N 45°49' W 084°45'511.1
2017-May-12 23:00N 45°50' W 084°37'611.0
2017-May-12 22:30N 45°52' W 084°29'612.2
2017-May-12 22:00N 45°53' W 084°21'612.2
2017-May-12 21:29N 45°53' W 084°12'612.2
2017-May-12 21:00N 45°54' W 084°03'711.8
2017-May-12 20:24N 45°56' W 083°54'322 8.6
2017-May-11 06:48N 46°53' W 091°34'412.7
2017-May-11 06:30N 46°51' W 091°39'612.7
2017-May-11 06:00N 46°48' W 091°47'612.6
2017-May-11 05:30N 46°45' W 091°55'5 9.5
2017-May-11 05:00N 46°42' W 092°01'0 0.6
2017-May-11 04:31N 46°42' W 092°01'0 0.0
2017-May-11 04:01N 46°42' W 092°01'0 0.0
2017-May-11 03:31N 46°42' W 092°01'0 0.0
2017-May-11 03:01N 46°42' W 092°01'0 0.0
2017-May-11 02:30N 46°42' W 092°01'0 0.0
2017-May-11 02:00N 46°42' W 092°01'0 0.0
2017-May-11 01:30N 46°42' W 092°01'0 0.0
2017-May-11 01:00N 46°42' W 092°01'0 0.0
2017-May-11 00:31N 46°42' W 092°01'0 0.0
2017-May-11 00:00N 46°42' W 092°01'0 0.0
2017-May-10 23:30N 46°42' W 092°01'0 0.0
2017-May-10 23:00N 46°42' W 092°01'0 0.0
2017-May-10 22:30N 46°42' W 092°01'0 0.0
2017-May-10 22:00N 46°42' W 092°01'0 0.0
2017-May-10 21:30N 46°42' W 092°01'0 0.0
2017-May-10 21:00N 46°42' W 092°01'0 0.0
2017-May-10 20:30N 46°42' W 092°01'0 0.0
2017-May-10 20:00N 46°42' W 092°01'0 0.0
2017-May-10 19:30N 46°42' W 092°01'0 0.0
2017-May-10 19:00N 46°42' W 092°01'0 0.0
2017-May-10 18:30N 46°42' W 092°01'0 0.0
2017-May-10 18:00N 46°42' W 092°01'0 0.0
2017-May-10 17:30N 46°42' W 092°01'0 0.0
2017-May-10 17:00N 46°42' W 092°01'0 0.0
2017-May-10 16:31N 46°42' W 092°01'0 0.0
2017-May-10 16:00N 46°42' W 092°01'0 0.0
2017-May-10 15:31N 46°42' W 092°01'0 0.0
2017-May-10 15:00N 46°42' W 092°01'0 0.0
2017-May-10 14:00N 46°42' W 092°01'0 0.0
2017-May-10 13:31N 46°42' W 092°01'0 0.0
2017-May-10 13:00N 46°42' W 092°01'0 0.0
2017-May-10 12:31N 46°42' W 092°01'0 0.0
2017-May-10 12:00N 46°42' W 092°01'0 0.0
2017-May-10 11:31N 46°42' W 092°01'0 0.0
2017-May-10 11:00N 46°42' W 092°01'0 0.0
2017-May-10 10:30N 46°42' W 092°01'0 0.0
2017-May-10 10:00N 46°42' W 092°01'0 0.0
2017-May-10 09:30N 46°42' W 092°01'0 0.0
2017-May-10 09:00N 46°42' W 092°01'0 0.0
2017-May-10 08:30N 46°42' W 092°01'0 0.0
2017-May-10 08:00N 46°42' W 092°01'0 0.0
2017-May-10 07:30N 46°42' W 092°01'0 0.0
2017-May-10 07:00N 46°42' W 092°01'0 0.0
2017-May-10 06:30N 46°42' W 092°01'0 0.0
2017-May-10 06:00N 46°42' W 092°01'0 0.0
2017-May-10 05:30N 46°42' W 092°01'0 0.0
2017-May-10 05:00N 46°42' W 092°01'0 0.0
2017-May-10 04:30N 46°42' W 092°01'0 0.0
2017-May-10 04:00N 46°42' W 092°01'0 0.0
2017-May-10 03:30N 46°42' W 092°01'0 0.0
2017-May-10 03:01N 46°42' W 092°01'0 0.0
2017-May-10 02:31N 46°42' W 092°01'0 0.0
2017-May-10 02:00N 46°42' W 092°01'0 0.0
2017-May-10 01:30N 46°42' W 092°01'0 0.0
2017-May-10 01:01N 46°42' W 092°01'0 0.0
2017-May-10 00:31N 46°42' W 092°01'0 0.0
2017-May-10 00:00N 46°42' W 092°01'0 0.0
2017-May-09 23:30N 46°42' W 092°01'0 0.0
2017-May-09 23:00N 46°42' W 092°01'0 0.0
2017-May-09 22:30N 46°42' W 092°01'0 0.0
2017-May-09 22:00N 46°42' W 092°01'0 0.0
2017-May-09 21:31N 46°42' W 092°01'0 0.4
2017-May-09 21:00N 46°42' W 092°01'1 2.1
2017-May-09 20:31N 46°43' W 091°60'2 4.5
2017-May-09 20:00N 46°44' W 091°57'0 0.4
2017-May-09 19:30N 46°44' W 091°57'0 0.4
2017-May-09 19:00N 46°44' W 091°57'0 0.4
2017-May-09 18:30N 46°44' W 091°56'0 0.4
2017-May-09 18:00N 46°44' W 091°56'0 0.3
2017-May-09 17:30N 46°44' W 091°56'0 0.2
2017-May-09 17:00N 46°44' W 091°56'0 0.1
2017-May-09 16:30N 46°45' W 091°56'3 6.2
2017-May-09 16:00N 46°46' W 091°52'4 7.5
2017-May-09 15:30N 46°48' W 091°47'510.6
2017-May-09 15:00N 46°50' W 091°40'611.5
2017-May-09 14:30N 46°53' W 091°32'  

Dump ship's entire track history